aviador You're here:

KHEI Decoded Metar

HETTINGER in ND, USA
Report Time2018-06-21 11:53:00
UTC Time2018-06-21 12:33:36
Flight Rules vfr VFR
Wind300° at 03 kt
W.Decomp.*RWY 30: 3.0 kt HW 0.4 kt LCW
RWY 35: 1.6 kt HW 2.5 kt LCW
W.Rank300° ranks 1
Current wind is below 300° avg. (11.4)
Visibility9999 m
Phenomena:N/A
Clouds:N/A
Expected CloudBase > 400 ft AGL from Temp-Dew spread
CeilingNone
Temp10°C (ISA 0)
Dew Point09°C (94% RH)
AAT8.7°C
QNH1018 hPa
Density Alt2,759 ft
Elevation2,717 ft
Report Wrong Elevation
Raw Report
KHEI 211153Z AUTO 30003KT 8SM CLR 10/09 A3007 RMK AO2 SLP176
T01000094 10122 20083 53001=

Extra information for KHEI:More info

Metar Taf Metar & Taf Last 4 Metars F.Rules Stats Wind Profile Meteogram Temp Stats Airport Information Weather charts Add Link Nearby VenuesMetar ALERT Operation Metar Decoded Social comments

AIRNAV info for KHEI